This demonstration page uses our WeatherBlox Daily Observations layout. Learn more.

38.88101, -77.10428

Hourly Observations for October 29, 2016

Temp ( °F °C ) Dew Point ( °F °C ) Humidity (%) Winds ( mph kmh ) Pressure ( in mb ) Visibility ( mi km ) Precip ( " mm )
12:52 am 00:52 Partly Cloudy 48 8.9 43 6.1 83 83 N 5 7 30.27 1025 10 16.09344 0 0
1:52 am 01:52 Clear 50 10 45 7.2 83 83 Calm 30.24 1024 10 16.09344 0 0
2:52 am 02:52 Mostly Cloudy 46 7.8 42 5.6 86 86 WSW 5 7 30.27 1025 10 16.09344 0 0
3:52 am 03:52 Clear 46 7.8 41 5 83 83 SW 6 9 30.24 1024 10 16.09344 0 0
4:52 am 04:52 Clear 47 8.3 40 4.4 77 77 WSW 3 6 30.24 1024 10 16.09344 0 0
5:52 am 05:52 Clear 45 7.2 41 5 86 86 SSW 7 11 30.24 1024 10 16.09344 0 0
6:52 am 06:52 Mostly Clear 46 7.8 42 5.6 86 86 SW 5 7 30.24 1024 10 16.09344 0 0
7:52 am 07:52 Mostly Sunny 46 7.8 43 6.1 89 89 WSW 5 7 30.24 1024 10 16.09344 0 0
8:52 am 08:52 Mostly Sunny 49 9.4 46 7.8 90 90 S 5 7 30.24 1024 10 16.09344 0 0
9:52 am 09:52 Partly Cloudy 53 11.7 47 8.3 80 80 S 9 15 30.21 1023 10 16.09344 0 0
10:52 am 10:52 Partly Cloudy 60 15.6 47 8.3 62 62 S 12 19 30.18 1022 10 16.09344 0 0
11:52 am 11:52 Mostly Cloudy 64 17.8 49 9.4 58 58 SSW 14 22 30.15 1021 10 16.09344 0 0
12:52 pm 12:52 Mostly Cloudy 68 20 51 10.6 55 55 S 14 22 30.12 1020 10 16.09344 0 0
1:52 pm 13:52 Mostly Cloudy 71 21.7 53 11.7 53 53 S 9 15 30.06 1018 10 16.09344 0 0
2:52 pm 14:52 Mostly Cloudy 75 23.9 53 11.7 46 46 SW 12 19 30.03 1017 8 12.874752 0 0
3:52 pm 15:52 Sunny 75 23.9 53 11.7 46 46 S 14 22 30 1016 10 16.09344 0 0
4:52 pm 16:52 Cloudy 75 23.9 54 12.2 48 48 SSW 15 24 30 1016 10 16.09344 0 0
5:52 pm 17:52 Mostly Cloudy 72 22.2 56 13.3 57 57 SSW 12 19 30 1016 10 16.09344 0 0
6:52 pm 18:52 Mostly Cloudy 67 19.4 57 13.9 71 71 S 8 13 30 1016 10 16.09344 0 0
7:52 pm 19:52 Partly Cloudy 66 18.9 57 13.9 73 73 S 12 19 30 1016 10 16.09344 0 0
8:52 pm 20:52 Clear 64 17.8 57 13.9 78 78 S 7 11 30 1016 10 16.09344 0 0
9:52 pm 21:52 Clear 64 17.8 58 14.4 81 81 S 8 13 30.03 1017 10 16.09344 0 0
10:52 pm 22:52 Mostly Clear 63 17.2 57 13.9 81 81 S 9 15 30.03 1017 10 16.09344 0 0
11:52 pm 23:52 Partly Cloudy 62 16.7 58 14.4 86 86 S 9 15 30.03 1017 10 16.09344 0 0

Powered by AerisWeather